Airfield :
LOGIN :

Register | Disclaimer

   EN    FR    IT 

 










Legend :    VFR   Marginal VFR   IFR   Intensive IFR   Very Intensive IFR
Visi :
Ceiling :
>= 8 km
>= 3000ft
5 to 8 km
1000 to 3000 ft
1500m to 5 km
500 to 1000 ft
800 to 1500m
200 to 500 ft
< 800m
< 200 ft
Symbols :   Thunderstorms  Fog  Heavy snow  Heavy precipitations  Wind > 20 kt
SIGMETs :     Misc.  Thunderstorms  Icing  Turbulence  Mountain Waves  Volcanic Ashes






- Airport Elevation : 284 ft


EGUW - RAF Wattisham

CURRENT METAR :
  • 282320Z AUTO 23011KT 5000 DZ OVC003/// 14/13 Q1007

EXPIRED METARs :
  • 282250Z AUTO 23011KT 9999 // OVC004/// 14/13 Q1007
  • 282220Z AUTO 22010KT 9999 DZ OVC004/// 14/13 Q1008
  • 282150Z AUTO 21009KT 9999 -RA OVC007/// 14/13 Q1008
  • 282120Z AUTO 22010KT 4800 RA BKN007/// 14/13 Q1008
  • 282050Z AUTO 21011KT 9999 BKN009/// SCT076/// 15/13 Q1008
  • 282020Z AUTO 21011KT 9999 OVC007/// 14/13 Q1008
  • 281950Z AUTO 22012KT 9999 BKN009/// BKN110/// 15/13 Q1008
  • 281920Z AUTO 21011KT 9999 OVC010/// 15/13 Q1008
  • 281850Z AUTO 22013KT 9999 OVC011/// 15/13 Q1008

TAF TAF EGUW
Valid from the 28 at 15:00 until the 29 at 00:00 UTC


281326Z 2815/2824 20012KT 9999 -RA BKN015
TEMPO 2815/2822 7000 -RADZ BKN008
PROB30
TEMPO 2815/2822 3000 RADZ BKN005



MET'MAP, your aeronautical weather chart ! - Copyright ORBIFLY December 2007 - Disclaimer

ORBIFLY MET'MAP TEAM :

Programming & Development : Alexandra Zaïnal
Original concept : Baudouin d'Aumeries
Technical & hardware support : Manuel Goepfert
Assistance : Marc-Olivier Méhu




SOURCES & CREDITS :

   NOAA